Time;durP1;ratioP1;P1;durP2;ratioP2;P2;SDS_P1;SDS_P2;PMS_P1;PMS_P2;Temp;Humidity;BMP_temperature;BMP_pressure;BME280_temperature;BME280_humidity;BME280_pressure;Samples;Min_cycle;Max_cycle;Signal;HPM_P1;HPM_P2
2021/08/24 00:01:09;;;;;;;8.75;4.50;;;17.60;79.60;;;;;;5028427;28;20477;-71
2021/08/24 00:03:35;;;;;;;10.35;5.55;;;17.60;79.80;;;;;;5029422;28;20025;-71
2021/08/24 00:06:01;;;;;;;9.27;5.55;;;17.50;79.80;;;;;;5029806;28;20507;-72
2021/08/24 00:08:26;;;;;;;11.73;5.68;;;17.50;79.90;;;;;;5017393;28;20061;-72
2021/08/24 00:10:55;;;;;;;9.88;5.50;;;17.50;80.00;;;;;;5030461;28;20437;-73
2021/08/24 00:13:23;;;;;;;9.15;5.22;;;17.40;80.30;;;;;;5039744;28;21960;-79
2021/08/24 00:15:49;;;;;;;9.45;5.45;;;17.30;80.30;;;;;;5039954;28;20120;-72
2021/08/24 00:18:16;;;;;;;13.45;5.63;;;17.30;80.60;;;;;;5029043;28;20488;-73
2021/08/24 00:20:46;;;;;;;10.75;6.05;;;17.20;80.60;;;;;;5020071;28;20118;-73
2021/08/24 00:23:14;;;;;;;11.05;5.40;;;17.10;80.80;;;;;;5027543;28;20157;-73
2021/08/24 00:25:41;;;;;;;11.77;6.40;;;17.10;80.80;;;;;;5011624;28;20389;-76
2021/08/24 00:28:07;;;;;;;9.48;6.05;;;17.10;81.00;;;;;;5011294;28;20437;-73
2021/08/24 00:30:34;;;;;;;9.25;6.25;;;17.00;81.20;;;;;;5011777;28;20037;-73
2021/08/24 00:33:00;;;;;;;9.93;5.75;;;16.90;81.50;;;;;;5013088;28;20080;-74
2021/08/24 00:35:26;;;;;;;9.95;6.50;;;16.80;81.60;;;;;;5011743;28;20022;-73
2021/08/24 00:37:52;;;;;;;10.80;6.03;;;16.80;81.90;;;;;;5012997;28;20038;-73
2021/08/24 00:40:18;;;;;;;10.00;6.13;;;16.70;82.00;;;;;;5011249;28;20452;-72
2021/08/24 00:42:45;;;;;;;10.65;6.57;;;16.70;82.10;;;;;;5007287;28;20393;-73
2021/08/24 00:45:13;;;;;;;11.88;6.65;;;16.60;82.30;;;;;;5010348;28;20041;-73
2021/08/24 00:47:42;;;;;;;11.05;5.93;;;16.60;82.50;;;;;;5021946;28;20029;-72
2021/08/24 00:50:23;;;;;;;13.15;6.53;;;16.50;82.80;;;;;;5014844;28;20124;-73
2021/08/24 00:52:48;;;;;;;10.93;6.85;;;16.50;82.90;;;;;;5025140;28;20072;-72
2021/08/24 00:55:16;;;;;;;10.55;7.15;;;16.40;82.90;;;;;;5015922;28;20453;-72
2021/08/24 00:57:44;;;;;;;11.38;6.93;;;16.40;83.20;;;;;;4999845;28;20030;-73
2021/08/24 01:00:10;;;;;;;11.52;7.05;;;16.30;83.30;;;;;;5021087;28;20032;-72
2021/08/24 01:02:36;;;;;;;12.30;7.15;;;16.30;83.40;;;;;;5032473;28;20045;-73
2021/08/24 01:05:02;;;;;;;10.00;6.43;;;16.20;83.60;;;;;;5027640;28;20467;-74
2021/08/24 01:07:54;;;;;;;15.30;7.40;;;16.10;83.80;;;;;;5027450;28;20041;-73
2021/08/24 01:10:44;;;;;;;11.68;7.35;;;16.10;83.80;;;;;;5021600;28;20036;-73
2021/08/24 01:13:35;;;;;;;11.77;7.85;;;16.10;83.90;;;;;;5028770;28;20029;-72
2021/08/24 01:16:17;;;;;;;12.13;7.75;;;16.10;83.90;;;;;;5029967;28;20038;-73
2021/08/24 01:19:01;;;;;;;11.98;7.15;;;16.00;84.00;;;;;;5018794;28;20435;-73
2021/08/24 01:21:50;;;;;;;13.80;7.88;;;16.00;84.20;;;;;;5017654;28;20056;-72
2021/08/24 01:24:24;;;;;;;13.90;7.90;;;15.90;84.20;;;;;;5033967;28;20053;-79
2021/08/24 01:27:02;;;;;;;13.40;8.50;;;15.90;84.30;;;;;;5013123;28;20030;-73
2021/08/24 01:29:48;;;;;;;12.95;8.43;;;15.80;84.30;;;;;;5022817;28;20054;-72
2021/08/24 01:32:44;;;;;;;12.95;8.48;;;15.90;84.40;;;;;;5044407;28;20034;-75
2021/08/24 01:35:28;;;;;;;13.95;8.75;;;15.80;84.50;;;;;;5027709;28;20496;-72
2021/08/24 01:38:23;;;;;;;12.85;8.15;;;15.80;84.60;;;;;;5010975;28;20738;-73
2021/08/24 01:41:04;;;;;;;13.40;8.70;;;15.80;84.60;;;;;;5026713;28;20452;-72
2021/08/24 01:43:50;;;;;;;12.25;8.60;;;15.80;84.70;;;;;;5025747;28;20029;-72
2021/08/24 01:46:23;;;;;;;12.77;9.13;;;15.70;84.80;;;;;;5030824;28;20050;-72
2021/08/24 01:48:53;;;;;;;14.27;8.98;;;15.70;84.80;;;;;;5031491;28;20045;-73
2021/08/24 01:51:22;;;;;;;13.35;9.02;;;15.70;84.90;;;;;;5028886;28;20531;-73
2021/08/24 01:53:59;;;;;;;15.27;8.95;;;15.60;85.10;;;;;;5027801;28;20029;-72
2021/08/24 01:56:31;;;;;;;12.93;9.23;;;15.60;85.10;;;;;;5029597;28;20038;-72
2021/08/24 01:59:48;;;;;;;14.88;9.45;;;15.60;85.20;;;;;;5030703;28;20045;-72
2021/08/24 02:02:26;;;;;;;13.63;9.18;;;15.60;85.30;;;;;;4991217;28;20411;-73
2021/08/24 02:05:07;;;;;;;16.58;10.25;;;15.60;85.30;;;;;;4992656;28;20204;-72
2021/08/24 02:07:34;;;;;;;18.45;9.73;;;15.60;85.50;;;;;;5035616;28;20050;-72
2021/08/24 02:10:22;;;;;;;15.98;10.27;;;15.50;85.50;;;;;;5031190;28;20388;-75
2021/08/24 02:12:51;;;;;;;15.40;10.57;;;15.50;85.60;;;;;;5028279;28;20452;-72
2021/08/24 02:15:21;;;;;;;13.85;10.85;;;15.50;85.70;;;;;;5030660;28;20029;-73
2021/08/24 02:17:48;;;;;;;13.85;10.65;;;15.50;85.70;;;;;;5029379;28;20357;-72
2021/08/24 02:20:41;;;;;;;15.00;10.63;;;15.50;85.60;;;;;;5030672;28;20052;-72
2021/08/24 02:23:15;;;;;;;18.75;10.98;;;15.50;85.80;;;;;;5035025;28;20058;-73
2021/08/24 02:25:45;;;;;;;16.98;10.18;;;15.50;85.80;;;;;;5024630;28;20607;-72
2021/08/24 02:28:32;;;;;;;13.60;9.90;;;15.40;85.80;;;;;;5030590;28;20038;-72
2021/08/24 02:31:03;;;;;;;13.93;10.95;;;15.40;85.90;;;;;;5030748;28;20035;-73
2021/08/24 02:33:38;;;;;;;14.73;10.90;;;15.40;86.10;;;;;;5030126;28;20083;-82
2021/08/24 02:36:05;;;;;;;15.48;10.40;;;15.30;86.20;;;;;;5028318;28;20026;-73
2021/08/24 02:38:36;;;;;;;14.55;11.23;;;15.30;86.30;;;;;;5029287;28;20034;-73
2021/08/24 02:41:20;;;;;;;15.57;11.68;;;15.30;86.40;;;;;;5030656;28;20036;-72
2021/08/24 02:43:57;;;;;;;14.77;10.93;;;15.30;86.60;;;;;;5028968;28;20473;-72
2021/08/24 02:46:35;;;;;;;15.10;11.75;;;15.30;86.50;;;;;;5029063;28;20044;-73
2021/08/24 02:49:07;;;;;;;16.55;11.07;;;15.30;86.50;;;;;;5029988;28;20562;-72
2021/08/24 02:51:33;;;;;;;18.70;11.18;;;15.30;86.60;;;;;;5030544;28;20489;-77
2021/08/24 02:54:13;;;;;;;14.50;11.00;;;15.30;86.50;;;;;;5032203;28;20049;-72
2021/08/24 02:56:39;;;;;;;15.23;11.75;;;15.20;86.60;;;;;;5027575;28;20037;-72
2021/08/24 02:59:05;;;;;;;14.77;11.70;;;15.20;86.60;;;;;;5030105;28;20057;-72
2021/08/24 03:01:31;;;;;;;16.25;12.07;;;15.20;86.60;;;;;;5029995;28;20477;-79
2021/08/24 03:03:57;;;;;;;16.73;11.50;;;15.20;86.70;;;;;;5028796;28;20033;-73
2021/08/24 03:06:23;;;;;;;16.05;11.32;;;15.20;86.60;;;;;;5029904;28;20040;-73
2021/08/24 03:08:49;;;;;;;14.57;11.00;;;15.10;86.80;;;;;;5028968;28;20061;-72
2021/08/24 03:11:20;;;;;;;18.70;11.75;;;15.10;86.80;;;;;;5029911;28;20374;-73
2021/08/24 03:14:00;;;;;;;15.70;12.90;;;15.10;86.90;;;;;;5029874;28;20496;-76
2021/08/24 03:16:36;;;;;;;15.40;12.48;;;15.10;87.00;;;;;;5027744;28;20114;-75
2021/08/24 03:19:06;;;;;;;17.65;13.32;;;15.10;87.10;;;;;;5027685;28;20029;-77
2021/08/24 03:21:36;;;;;;;18.77;12.65;;;15.10;87.10;;;;;;5029818;28;20361;-74
2021/08/24 03:24:04;;;;;;;19.30;13.57;;;15.00;87.10;;;;;;5032953;28;20481;-73
2021/08/24 03:26:34;;;;;;;19.92;13.95;;;15.00;87.20;;;;;;5030091;28;20148;-72
2021/08/24 03:29:05;;;;;;;17.45;13.48;;;15.00;87.30;;;;;;5028739;28;20257;-72
2021/08/24 03:31:31;;;;;;;18.33;13.73;;;15.00;87.40;;;;;;5029293;28;20030;-73
2021/08/24 03:33:56;;;;;;;15.77;12.50;;;15.00;87.40;;;;;;5029561;28;20116;-73
2021/08/24 03:36:22;;;;;;;18.10;13.55;;;14.90;87.50;;;;;;5029915;28;20133;-73
2021/08/24 03:38:47;;;;;;;18.55;15.65;;;14.90;87.50;;;;;;5028209;28;20026;-72
2021/08/24 03:41:13;;;;;;;17.52;14.38;;;15.00;87.50;;;;;;5027294;28;20033;-72
2021/08/24 03:43:39;;;;;;;18.23;13.73;;;14.90;87.40;;;;;;5029691;28;20457;-72
2021/08/24 03:46:05;;;;;;;16.48;12.65;;;14.90;87.40;;;;;;5029625;28;20444;-73
2021/08/24 03:48:31;;;;;;;17.38;12.63;;;14.90;87.40;;;;;;5028426;28;20033;-73
2021/08/24 03:50:56;;;;;;;16.90;13.65;;;14.90;87.40;;;;;;5028563;28;20060;-72
2021/08/24 03:53:22;;;;;;;17.90;13.75;;;14.90;87.40;;;;;;5032439;28;20044;-71
2021/08/24 03:55:48;;;;;;;18.02;13.32;;;14.80;87.40;;;;;;5028289;28;20030;-74
2021/08/24 03:58:14;;;;;;;16.75;12.65;;;14.80;87.50;;;;;;5027727;28;20030;-73
2021/08/24 04:00:47;;;;;;;20.45;14.10;;;14.80;87.60;;;;;;5030263;28;20061;-73
2021/08/24 04:03:13;;;;;;;17.67;13.67;;;14.80;87.60;;;;;;5025333;28;20068;-76
2021/08/24 04:05:39;;;;;;;17.38;14.35;;;14.80;87.60;;;;;;5033567;28;20264;-72
2021/08/24 04:08:05;;;;;;;19.08;14.57;;;14.80;87.60;;;;;;5032832;28;20048;-73
2021/08/24 04:10:31;;;;;;;16.83;13.30;;;14.80;87.60;;;;;;5036909;28;20477;-72
2021/08/24 04:12:57;;;;;;;16.63;14.43;;;14.80;87.60;;;;;;5033107;28;20037;-72
2021/08/24 04:15:23;;;;;;;15.70;13.23;;;14.70;87.60;;;;;;5023520;28;20073;-72
2021/08/24 04:17:49;;;;;;;17.77;13.77;;;14.70;87.60;;;;;;5032994;28;20033;-74
2021/08/24 04:20:16;;;;;;;16.60;12.95;;;14.70;87.70;;;;;;5032782;28;20037;-72
2021/08/24 04:22:45;;;;;;;16.02;14.07;;;14.70;87.70;;;;;;5032739;28;20060;-73
2021/08/24 04:25:13;;;;;;;18.08;14.30;;;14.70;87.60;;;;;;5023782;28;20045;-74
2021/08/24 04:27:39;;;;;;;20.38;14.63;;;14.70;87.70;;;;;;5029281;28;20033;-71
2021/08/24 04:30:05;;;;;;;18.95;14.82;;;14.70;87.70;;;;;;5032672;28;20048;-75
2021/08/24 04:32:33;;;;;;;19.25;16.40;;;14.60;87.80;;;;;;5032788;28;20040;-73
2021/08/24 04:34:59;;;;;;;18.42;14.77;;;14.60;87.90;;;;;;5032827;28;20076;-74
2021/08/24 04:37:25;;;;;;;18.20;15.43;;;14.60;88.00;;;;;;5030323;28;21102;-76
2021/08/24 04:39:50;;;;;;;18.02;14.75;;;14.60;88.00;;;;;;5032740;28;20034;-72
2021/08/24 04:42:16;;;;;;;19.38;15.93;;;14.60;87.90;;;;;;5032191;28;20392;-71
2021/08/24 04:44:42;;;;;;;18.95;15.65;;;14.60;87.90;;;;;;5031122;28;20033;-72
2021/08/24 04:47:08;;;;;;;16.42;13.30;;;14.60;87.90;;;;;;5030112;28;20033;-73
2021/08/24 04:49:34;;;;;;;20.75;16.55;;;14.60;88.00;;;;;;5031486;28;20029;-75
2021/08/24 04:52:00;;;;;;;17.90;14.10;;;14.60;88.10;;;;;;5036116;28;20392;-73
2021/08/24 04:54:25;;;;;;;17.08;15.20;;;14.60;88.10;;;;;;5030954;28;20026;-72
2021/08/24 04:56:51;;;;;;;16.40;13.65;;;14.60;88.10;;;;;;5030958;28;20037;-72
2021/08/24 04:59:17;;;;;;;15.95;14.25;;;14.50;88.00;;;;;;5031230;28;20045;-73
2021/08/24 05:01:42;;;;;;;16.90;14.00;;;14.60;87.90;;;;;;5032108;28;20461;-73
2021/08/24 05:04:09;;;;;;;18.23;15.20;;;14.60;87.90;;;;;;5031951;28;20109;-72
2021/08/24 05:06:34;;;;;;;18.55;14.38;;;14.60;87.90;;;;;;5032455;28;20076;-74
2021/08/24 05:09:00;;;;;;;16.33;13.55;;;14.60;87.80;;;;;;5029870;28;20037;-72
2021/08/24 05:11:26;;;;;;;18.52;14.15;;;14.60;87.90;;;;;;5030450;28;20029;-73
2021/08/24 05:13:52;;;;;;;17.73;14.82;;;14.60;87.80;;;;;;5032106;28;20038;-72
2021/08/24 05:16:18;;;;;;;17.23;14.07;;;14.60;87.80;;;;;;5031652;28;20473;-73
2021/08/24 05:18:43;;;;;;;19.05;14.63;;;14.60;87.70;;;;;;5031970;28;20116;-72
2021/08/24 05:21:15;;;;;;;17.48;13.32;;;14.60;87.70;;;;;;5030744;28;20040;-72
2021/08/24 05:23:42;;;;;;;16.30;13.45;;;14.60;87.70;;;;;;5037217;28;20048;-72
2021/08/24 05:26:18;;;;;;;16.17;13.40;;;14.60;87.60;;;;;;5031460;28;20040;-72
2021/08/24 05:28:45;;;;;;;14.98;13.15;;;14.70;87.50;;;;;;5031347;28;20030;-72
2021/08/24 05:31:10;;;;;;;17.77;13.55;;;14.70;87.40;;;;;;5030262;28;20061;-72
2021/08/24 05:33:36;;;;;;;18.65;13.77;;;14.70;87.50;;;;;;5031762;28;20061;-73
2021/08/24 05:36:03;;;;;;;17.05;13.38;;;14.70;87.50;;;;;;5031298;28;20083;-72
2021/08/24 05:38:30;;;;;;;17.85;13.63;;;14.80;87.30;;;;;;5031526;28;20087;-72
2021/08/24 05:40:56;;;;;;;16.58;13.50;;;14.80;87.00;;;;;;5031924;28;20037;-71
2021/08/24 05:43:23;;;;;;;17.75;12.98;;;14.80;87.10;;;;;;5026113;28;20025;-70
2021/08/24 05:46:02;;;;;;;19.90;13.85;;;14.80;87.10;;;;;;5029795;28;20036;-70
2021/08/24 05:48:29;;;;;;;16.65;13.20;;;14.80;87.10;;;;;;5031147;28;20037;-69
2021/08/24 05:50:55;;;;;;;17.48;13.07;;;14.90;87.10;;;;;;5031433;28;20143;-71
2021/08/24 05:53:21;;;;;;;18.10;14.00;;;15.00;87.00;;;;;;5032006;28;20116;-72
2021/08/24 05:55:46;;;;;;;16.95;13.57;;;14.90;86.90;;;;;;5028909;28;20037;-71
2021/08/24 05:58:13;;;;;;;17.90;13.93;;;15.00;87.00;;;;;;5027688;28;20451;-71
2021/08/24 06:00:39;;;;;;;19.60;13.35;;;15.00;86.90;;;;;;5026457;28;20034;-70
2021/08/24 06:03:05;;;;;;;20.38;13.48;;;14.90;86.90;;;;;;5025341;28;20112;-72
2021/08/24 06:05:31;;;;;;;21.63;13.10;;;15.00;86.70;;;;;;5022740;28;20388;-70
2021/08/24 06:07:57;;;;;;;18.33;12.18;;;15.10;86.60;;;;;;5043996;28;20464;-70
2021/08/24 06:10:22;;;;;;;19.38;13.50;;;15.00;86.20;;;;;;5038642;28;20036;-71
2021/08/24 06:12:48;;;;;;;20.65;13.10;;;15.10;86.10;;;;;;5035739;28;20029;-69
2021/08/24 06:15:14;;;;;;;21.13;12.75;;;15.10;86.10;;;;;;5035054;28;20071;-69
2021/08/24 06:17:41;;;;;;;16.27;11.70;;;15.20;85.90;;;;;;5044446;28;20041;-70
2021/08/24 06:20:08;;;;;;;18.65;12.52;;;15.30;85.50;;;;;;5037938;28;20033;-69
2021/08/24 06:22:34;;;;;;;17.08;11.35;;;15.40;85.40;;;;;;5035449;28;20077;-72
2021/08/24 06:25:00;;;;;;;16.23;11.20;;;15.40;85.10;;;;;;5014106;28;20076;-69
2021/08/24 06:27:26;;;;;;;16.30;10.95;;;15.50;84.70;;;;;;5015130;28;20037;-69
2021/08/24 06:29:52;;;;;;;14.07;10.55;;;15.50;84.80;;;;;;5049113;28;20099;-69
2021/08/24 06:32:41;;;;;;;15.63;10.80;;;15.60;84.60;;;;;;5044620;28;20527;-74
2021/08/24 06:35:07;;;;;;;14.93;10.93;;;15.70;84.00;;;;;;5030634;28;20460;-69
2021/08/24 06:37:34;;;;;;;15.15;10.23;;;15.70;84.00;;;;;;5042247;28;20033;-72
2021/08/24 06:39:59;;;;;;;14.55;9.50;;;15.80;83.40;;;;;;5044501;28;20036;-71
2021/08/24 06:42:25;;;;;;;18.48;11.20;;;15.90;82.90;;;;;;5040893;28;20030;-71
2021/08/24 06:44:51;;;;;;;13.05;9.50;;;16.00;82.60;;;;;;5043459;28;20029;-71
2021/08/24 06:47:17;;;;;;;14.68;9.65;;;16.10;81.80;;;;;;5036510;28;20049;-71
2021/08/24 06:49:42;;;;;;;13.82;9.27;;;16.10;81.90;;;;;;5039990;28;20039;-75
2021/08/24 06:52:08;;;;;;;15.57;8.70;;;16.10;81.70;;;;;;5034220;28;20025;-75
2021/08/24 06:54:34;;;;;;;13.40;9.63;;;16.30;81.30;;;;;;5024136;28;20148;-70
2021/08/24 06:57:03;;;;;;;14.25;9.07;;;16.30;81.70;;;;;;5010401;28;20053;-70
2021/08/24 06:59:29;;;;;;;12.77;9.02;;;16.40;79.90;;;;;;5016739;28;20558;-71
2021/08/24 07:01:55;;;;;;;13.75;8.50;;;16.50;80.00;;;;;;5012449;28;20153;-71
2021/08/24 07:04:20;;;;;;;13.13;9.27;;;16.60;79.90;;;;;;5010007;28;20919;-71
2021/08/24 07:06:50;;;;;;;12.60;8.32;;;17.00;79.60;;;;;;5008848;28;20037;-72
2021/08/24 07:09:17;;;;;;;11.27;8.27;;;17.00;77.80;;;;;;5013216;28;20042;-71
2021/08/24 07:11:43;;;;;;;14.15;8.02;;;17.10;78.30;;;;;;5039301;28;20033;-71
2021/08/24 07:14:10;;;;;;;11.63;7.53;;;17.30;77.60;;;;;;5049612;28;20048;-71
2021/08/24 07:16:44;;;;;;;13.18;7.28;;;17.30;77.50;;;;;;5036749;28;20056;-71
2021/08/24 07:19:10;;;;;;;9.52;6.93;;;17.60;77.00;;;;;;5037920;28;20030;-72
2021/08/24 07:21:36;;;;;;;11.63;6.88;;;17.80;75.90;;;;;;5041792;28;20033;-71
2021/08/24 07:24:02;;;;;;;13.25;7.00;;;17.90;75.20;;;;;;5032566;28;20048;-71
2021/08/24 07:26:28;;;;;;;9.68;6.05;;;17.90;72.50;;;;;;5028348;28;20022;-70
2021/08/24 07:28:53;;;;;;;11.88;6.70;;;18.00;73.30;;;;;;5028166;28;20065;-70
2021/08/24 07:31:19;;;;;;;11.73;6.25;;;18.30;73.30;;;;;;5027912;28;20103;-71
2021/08/24 07:33:45;;;;;;;10.02;6.45;;;18.30;72.00;;;;;;5027472;28;20034;-74
2021/08/24 07:36:12;;;;;;;11.27;6.38;;;18.40;73.50;;;;;;5041749;28;20477;-71
2021/08/24 07:38:39;;;;;;;9.95;6.40;;;18.60;71.60;;;;;;5037157;28;20397;-72
2021/08/24 07:41:05;;;;;;;12.10;6.32;;;18.60;70.60;;;;;;5033327;28;20472;-71
2021/08/24 07:43:32;;;;;;;12.27;6.38;;;18.70;71.20;;;;;;5031622;28;20041;-70
2021/08/24 07:45:57;;;;;;;10.05;5.93;;;18.60;70.30;;;;;;5034993;28;20546;-71
2021/08/24 07:48:24;;;;;;;11.70;6.63;;;18.60;71.40;;;;;;5035841;28;20045;-76
2021/08/24 07:50:51;;;;;;;10.15;6.72;;;18.90;70.40;;;;;;5039796;28;20507;-71
2021/08/24 07:53:19;;;;;;;14.35;6.50;;;19.10;69.60;;;;;;5044347;28;20500;-71
2021/08/24 07:55:45;;;;;;;11.05;6.80;;;19.30;69.00;;;;;;5032818;28;20109;-72
2021/08/24 07:58:11;;;;;;;11.27;5.80;;;19.10;68.30;;;;;;5033100;28;20478;-71
2021/08/24 08:00:37;;;;;;;10.38;6.32;;;19.00;68.40;;;;;;5044895;28;20074;-72
2021/08/24 08:03:03;;;;;;;11.35;6.00;;;18.90;68.80;;;;;;5031668;28;20480;-71
2021/08/24 08:05:30;;;;;;;10.65;6.15;;;19.20;68.40;;;;;;5040973;28;20087;-70
2021/08/24 08:07:55;;;;;;;14.63;7.03;;;19.50;66.30;;;;;;5020397;28;20037;-71
2021/08/24 08:10:22;;;;;;;13.40;7.18;;;19.40;65.80;;;;;;5045902;28;20032;-71
2021/08/24 08:12:48;;;;;;;10.35;6.30;;;19.20;67.80;;;;;;5032773;28;20033;-71
2021/08/24 08:15:15;;;;;;;8.60;5.80;;;19.40;67.90;;;;;;5032782;28;20117;-72
2021/08/24 08:17:40;;;;;;;12.20;6.32;;;19.60;67.80;;;;;;5030801;28;20042;-71
2021/08/24 08:20:07;;;;;;;12.18;6.03;;;20.00;66.20;;;;;;5033997;28;20045;-72
2021/08/24 08:22:33;;;;;;;9.68;6.25;;;20.00;66.50;;;;;;5038749;28;20049;-72
2021/08/24 08:24:59;;;;;;;11.63;6.10;;;20.30;65.70;;;;;;5033227;28;20125;-71
2021/08/24 08:27:24;;;;;;;11.00;5.78;;;20.00;65.20;;;;;;5042470;28;20425;-71
2021/08/24 08:29:50;;;;;;;12.25;6.25;;;20.20;64.50;;;;;;5045868;28;20545;-71
2021/08/24 08:32:23;;;;;;;10.23;5.93;;;20.10;64.70;;;;;;5032642;28;20037;-70
2021/08/24 08:34:48;;;;;;;9.38;5.35;;;20.30;64.50;;;;;;5046067;28;20106;-74
2021/08/24 08:37:14;;;;;;;11.07;6.15;;;20.60;63.70;;;;;;5032644;28;20076;-71
2021/08/24 08:39:40;;;;;;;10.60;5.80;;;20.60;63.00;;;;;;5027369;28;20029;-72
2021/08/24 08:42:27;;;;;;;10.40;5.35;;;20.60;61.60;;;;;;5043281;28;20484;-72
2021/08/24 08:45:17;;;;;;;9.23;4.82;;;20.40;63.20;;;;;;5026772;28;20033;-72
2021/08/24 08:48:00;;;;;;;9.48;5.30;;;20.40;62.40;;;;;;5034257;28;20043;-72
2021/08/24 08:50:51;;;;;;;10.90;5.57;;;20.50;62.60;;;;;;5011469;28;20022;-70
2021/08/24 08:54:01;;;;;;;9.02;5.15;;;20.60;62.10;;;;;;5018186;28;20049;-72
2021/08/24 08:57:07;;;;;;;8.52;4.60;;;20.60;61.00;;;;;;5021888;28;20053;-72
2021/08/24 09:00:06;;;;;;;9.70;4.28;;;20.70;61.50;;;;;;5037260;28;20440;-71
2021/08/24 09:02:50;;;;;;;14.55;4.38;;;21.00;60.50;;;;;;5011143;28;20034;-71
2021/08/24 09:05:21;;;;;;;;;;;21.30;59.50;;;;;;5011089;28;20396;-71
2021/08/24 09:07:53;;;;;;;10.43;4.30;;;21.40;58.20;;;;;;5010905;28;20003;-72
2021/08/24 09:10:26;;;;;;;8.45;3.78;;;21.50;59.20;;;;;;5010788;28;20401;-76
2021/08/24 09:13:04;;;;;;;11.02;4.07;;;21.50;56.60;;;;;;5011254;28;20113;-71
2021/08/24 09:15:44;;;;;;;7.18;3.50;;;21.20;58.70;;;;;;5012169;28;20026;-71
2021/08/24 09:18:16;;;;;;;6.95;4.00;;;21.20;59.80;;;;;;5011297;28;20061;-71
2021/08/24 09:21:00;;;;;;;8.27;3.80;;;21.40;60.60;;;;;;5012295;28;20030;-71
2021/08/24 09:23:26;;;;;;;6.95;3.70;;;21.60;57.80;;;;;;5020202;28;20034;-71
2021/08/24 09:26:16;;;;;;;8.05;4.05;;;21.70;58.70;;;;;;5034870;28;20472;-72
2021/08/24 09:28:42;;;;;;;10.50;4.30;;;21.40;58.60;;;;;;5030892;28;20041;-71
2021/08/24 09:31:15;;;;;;;13.23;4.95;;;21.60;58.50;;;;;;5010069;28;20040;-71
2021/08/24 09:33:40;;;;;;;7.68;3.80;;;21.60;58.40;;;;;;5018380;28;20022;-72
2021/08/24 09:36:06;;;;;;;8.18;3.78;;;21.80;58.40;;;;;;5019948;28;20116;-71
2021/08/24 09:38:49;;;;;;;9.45;4.28;;;21.80;58.30;;;;;;5016171;28;20064;-71
2021/08/24 09:41:29;;;;;;;7.72;4.03;;;22.30;57.70;;;;;;5011486;28;20036;-71
2021/08/24 09:43:58;;;;;;;7.78;4.00;;;22.50;54.70;;;;;;5011627;28;20038;-72
2021/08/24 09:46:37;;;;;;;14.15;5.00;;;22.40;56.90;;;;;;5008015;28;20088;-72
2021/08/24 09:49:08;;;;;;;10.18;5.90;;;22.70;56.60;;;;;;5011138;28;20500;-71
2021/08/24 09:52:18;;;;;;;8.82;4.28;;;23.00;57.90;;;;;;5016254;28;20048;-71
2021/08/24 09:54:52;;;;;;;11.95;4.53;;;22.90;57.10;;;;;;5004692;28;20500;-72
2021/08/24 09:57:32;;;;;;;11.73;5.47;;;23.00;58.50;;;;;;5019890;28;20030;-71
2021/08/24 10:00:19;;;;;;;10.18;5.15;;;22.90;58.40;;;;;;5031090;28;20112;-71
2021/08/24 10:02:50;;;;;;;11.48;5.32;;;23.10;58.00;;;;;;5001397;28;20041;-71
2021/08/24 10:05:21;;;;;;;11.00;5.40;;;23.00;56.90;;;;;;5029151;28;20034;-70
2021/08/24 10:07:52;;;;;;;8.90;5.20;;;22.80;58.70;;;;;;5016352;28;20054;-70
2021/08/24 10:10:34;;;;;;;9.02;4.75;;;22.90;57.50;;;;;;5016679;28;20045;-72
2021/08/24 10:13:29;;;;;;;10.40;4.47;;;22.70;56.80;;;;;;5007476;28;20030;-75
2021/08/24 10:16:09;;;;;;;10.00;4.57;;;22.90;56.10;;;;;;5009543;28;20474;-74
2021/08/24 10:18:35;;;;;;;10.93;5.07;;;23.10;57.20;;;;;;5016803;28;20044;-71
2021/08/24 10:21:05;;;;;;;10.15;5.13;;;23.20;55.80;;;;;;5009133;28;20026;-71
2021/08/24 10:23:38;;;;;;;10.60;5.10;;;23.00;58.10;;;;;;5015127;28;20366;-71
2021/08/24 10:26:08;;;;;;;8.00;4.33;;;23.00;56.50;;;;;;5022300;28;20032;-71
2021/08/24 10:28:36;;;;;;;8.57;4.10;;;23.20;57.10;;;;;;5045638;28;20533;-71
2021/08/24 10:31:36;;;;;;;9.20;4.55;;;23.40;56.60;;;;;;5028398;28;20068;-71
2021/08/24 10:34:23;;;;;;;12.32;4.53;;;23.50;55.00;;;;;;5032756;28;20030;-71
2021/08/24 10:36:49;;;;;;;7.97;3.65;;;23.30;56.60;;;;;;5068534;28;20033;-72
2021/08/24 10:39:30;;;;;;;11.07;4.60;;;23.60;54.80;;;;;;5061078;28;20048;-75
2021/08/24 10:42:15;;;;;;;8.65;3.97;;;23.60;54.10;;;;;;5050066;28;20033;-71
2021/08/24 10:45:12;;;;;;;7.20;3.20;;;23.80;54.10;;;;;;5030060;28;20036;-71
2021/08/24 10:48:16;;;;;;;6.00;2.58;;;23.90;53.40;;;;;;5014896;28;20083;-70
2021/08/24 10:51:20;;;;;;;6.35;2.80;;;23.30;51.00;;;;;;5036425;28;20029;-76
2021/08/24 10:54:07;;;;;;;8.13;2.75;;;23.50;50.90;;;;;;5014937;28;20045;-70
2021/08/24 10:56:45;;;;;;;7.82;3.42;;;23.70;51.90;;;;;;5011939;28;20029;-72
2021/08/24 10:59:39;;;;;;;8.52;2.47;;;24.10;52.10;;;;;;5011558;28;20526;-71
2021/08/24 11:02:25;;;;;;;6.25;2.35;;;24.40;51.10;;;;;;5007437;28;20041;-72
2021/08/24 11:05:38;;;;;;;6.75;2.30;;;24.50;47.50;;;;;;5010163;28;20124;-71
2021/08/24 11:08:34;;;;;;;7.55;2.83;;;24.60;48.80;;;;;;5010557;28;20050;-71
2021/08/24 11:11:36;;;;;;;8.30;2.28;;;24.40;51.00;;;;;;5009969;28;20030;-73
2021/08/24 11:14:26;;;;;;;5.32;2.45;;;24.00;50.70;;;;;;5016520;28;20391;-71
2021/08/24 11:17:30;;;;;;;4.72;2.33;;;23.20;49.80;;;;;;5005578;28;20034;-71
2021/08/24 11:20:05;;;;;;;5.77;2.47;;;23.00;51.40;;;;;;5012211;28;20155;-71
2021/08/24 11:22:43;;;;;;;5.00;2.22;;;22.70;50.70;;;;;;5030344;28;20056;-71
2021/08/24 11:25:08;;;;;;;6.40;2.30;;;22.70;50.10;;;;;;5030151;28;20071;-71
2021/08/24 11:27:53;;;;;;;4.95;2.10;;;22.80;48.90;;;;;;5041759;28;20037;-76
2021/08/24 11:30:31;;;;;;;;;;;23.00;48.80;;;;;;5040008;28;20121;-71
2021/08/24 11:33:44;;;;;;;4.90;2.28;;;23.50;49.60;;;;;;5040930;28;19949;-72
2021/08/24 11:36:25;;;;;;;5.57;1.98;;;23.60;48.50;;;;;;5013346;28;20040;-71
2021/08/24 11:39:03;;;;;;;8.10;2.58;;;23.30;48.80;;;;;;5042859;28;20038;-72
2021/08/24 11:41:29;;;;;;;6.50;2.35;;;23.60;49.30;;;;;;5021519;28;20534;-74
2021/08/24 11:44:16;;;;;;;10.10;2.22;;;23.70;47.30;;;;;;5029933;28;20476;-75
2021/08/24 11:46:54;;;;;;;6.07;2.40;;;23.50;47.90;;;;;;5005329;28;20393;-71
2021/08/24 11:49:25;;;;;;;5.35;2.38;;;23.50;46.30;;;;;;5015600;28;20045;-71
2021/08/24 11:52:06;;;;;;;7.75;2.70;;;22.60;48.50;;;;;;5010644;28;20156;-73
2021/08/24 11:54:53;;;;;;;6.50;2.42;;;22.70;48.60;;;;;;5022966;28;20021;-71
2021/08/24 11:57:45;;;;;;;8.60;2.70;;;23.10;48.10;;;;;;5031447;28;20026;-71
2021/08/24 12:00:12;;;;;;;7.45;2.80;;;23.20;47.90;;;;;;5028548;28;20022;-72
2021/08/24 12:02:41;;;;;;;5.63;2.50;;;23.40;50.30;;;;;;5029486;28;20049;-71
2021/08/24 12:05:23;;;;;;;10.15;3.10;;;23.70;49.50;;;;;;5028577;28;20042;-72
2021/08/24 12:07:58;;;;;;;7.13;2.90;;;23.60;51.60;;;;;;5028742;28;20485;-71
2021/08/24 12:10:45;;;;;;;4.40;2.40;;;23.70;52.00;;;;;;5027285;28;20433;-71
2021/08/24 12:13:12;;;;;;;6.50;2.45;;;23.80;46.60;;;;;;5028688;28;20029;-71
2021/08/24 12:15:46;;;;;;;7.85;2.97;;;23.70;49.60;;;;;;5028088;28;20361;-71
2021/08/24 12:18:18;;;;;;;7.70;3.08;;;23.90;51.30;;;;;;5026263;28;20036;-71
2021/08/24 12:20:51;;;;;;;7.40;2.75;;;23.70;49.50;;;;;;5028101;28;20060;-71
2021/08/24 12:23:31;;;;;;;7.88;2.70;;;23.30;50.90;;;;;;5037825;28;20144;-72
2021/08/24 12:25:57;;;;;;;7.10;3.55;;;23.70;48.90;;;;;;5032923;28;20041;-71
2021/08/24 12:28:23;;;;;;;7.75;3.70;;;24.00;52.80;;;;;;5032223;28;20045;-72
2021/08/24 12:30:58;;;;;;;8.95;3.70;;;24.10;52.50;;;;;;5030601;28;20484;-72
2021/08/24 12:33:40;;;;;;;8.38;3.92;;;23.80;52.60;;;;;;5032454;28;20030;-74
2021/08/24 12:36:24;;;;;;;8.98;4.53;;;23.30;54.40;;;;;;5032191;28;20029;-71
2021/08/24 12:38:49;;;;;;;8.15;4.00;;;23.50;54.50;;;;;;5032635;28;20034;-71
2021/08/24 12:41:33;;;;;;;8.00;3.90;;;23.60;54.20;;;;;;5029724;28;20038;-71
2021/08/24 12:44:14;;;;;;;6.35;3.53;;;23.40;54.60;;;;;;5032710;28;20381;-71
2021/08/24 12:46:45;;;;;;;7.80;3.17;;;23.80;54.40;;;;;;5031841;28;20530;-73
2021/08/24 12:49:14;;;;;;;6.82;3.08;;;24.20;52.60;;;;;;5031838;28;20034;-71
2021/08/24 12:51:50;;;;;;;7.15;3.40;;;24.20;47.60;;;;;;5034135;28;20056;-72
2021/08/24 12:54:42;;;;;;;8.73;3.85;;;23.60;49.00;;;;;;5043050;28;20116;-71
2021/08/24 12:57:12;;;;;;;9.65;3.45;;;23.20;50.80;;;;;;5038540;28;20460;-71
2021/08/24 12:59:42;;;;;;;11.93;3.95;;;23.10;52.30;;;;;;5052288;28;20028;-71
2021/08/24 13:02:21;;;;;;;8.82;3.97;;;23.40;51.90;;;;;;5039015;28;20037;-72
2021/08/24 13:05:13;;;;;;;6.72;3.65;;;23.60;51.70;;;;;;5027204;28;20061;-71